Flight Track Log - Related Links

Times and Time Zones

All times are in EDT time to prevent confusion due to time zone crossing. See the VNR169 flight status page for this flight to view local times or setup timezone preferences in your user account.

Time Position Orientation Groundspeed Altitude Reporting Facility
EDT Latitude Longitude Course Direction KTS MPH feet Rate Location/Type
Tue 06:29:00 PM 37.4094 -79.9456 60° Northeast  Level FlightAware Approximate
Tue 06:30:00 PM 37.4437 -79.8689 61° Northeast  Level FlightAware Approximate
Tue 06:31:00 PM 37.4779 -79.7921 61° Northeast  Level FlightAware Approximate
Tue 06:32:00 PM 37.5121 -79.7152 61° Northeast  Level FlightAware Approximate
Tue 06:33:00 PM 37.5391 -79.6339 67° East  Level FlightAware Approximate
Tue 06:34:00 PM 37.5660 -79.5525 67° East  Level FlightAware Approximate
Tue 06:35:00 PM 37.5965 -79.4725 59° Northeast  Level FlightAware Approximate
Tue 06:36:00 PM 37.6326 -79.3970 59° Northeast  Level FlightAware Approximate
Tue 06:37:00 PM 37.6686 -79.3213 59° Northeast  Level FlightAware Approximate
Tue 06:37:04 PM 37.7167 -79.2167 62° Northeast 294 338 5,900  Level Potomac TRACON
Tue 06:38:00 PM 37.7046 -79.2456 59° Northeast  Level FlightAware Approximate
Tue 06:38:10 PM 37.7500 -79.1333 63° Northeast 283 326 5,900  Level Potomac TRACON
Tue 06:39:00 PM 37.7406 -79.1698 59° Northeast  Level FlightAware Approximate
Tue 06:39:04 PM 37.8000 -79.0500 53° Northeast 286 329 5,900  Level Potomac TRACON
Tue 06:40:00 PM 37.7742 -79.0923 62° Northeast  Level FlightAware Approximate
Tue 06:40:10 PM 37.8333 -78.9500 67° East 292 336 5,900  Level Potomac TRACON
Tue 06:41:00 PM 37.8069 -79.0141 62° Northeast  Level FlightAware Approximate
Tue 06:41:04 PM 37.8667 -78.8667 63° Northeast 281 323 5,300  Level Potomac TRACON
Tue 06:42:00 PM 37.8395 -78.9359 62° Northeast  Level FlightAware Approximate
Tue 06:42:04 PM 37.9000 -78.7833 63° Northeast 274 315 4,900  Level Potomac TRACON
Tue 06:43:10 PM 37.9500 -78.7000 53° Northeast 275 316 4,900  Level Potomac TRACON
Tue 06:44:10 PM 37.9833 -78.6167 63° Northeast 271 312 4,900  Level Potomac TRACON
Tue 06:45:10 PM 38.0167 -78.5167 67° East 277 319 4,900  Level Potomac TRACON
Tue 06:46:05 PM 38.0500 -78.4500 58° Northeast 283 326 4,900  Level Potomac TRACON
Tue 06:47:05 PM 38.0833 -78.3500 67° East 283 326 4,900  Level Potomac TRACON
Tue 06:48:05 PM 38.1167 -78.2667 63° Northeast 283 326 4,900  Level Potomac TRACON
Tue 06:49:11 PM 38.1667 -78.1667 58° Northeast 284 327 4,900  Level Potomac TRACON
Tue 06:50:11 PM 38.1500 -78.0667 102° East 292 336 4,900  Level Potomac TRACON
Tue 06:51:11 PM 38.1333 -77.9667 102° East 292 336 4,900  Level Potomac TRACON
Tue 06:52:11 PM 38.1167 -77.8667 102° East 292 336 4,900  Level Potomac TRACON
Tue 06:53:05 PM 38.1000 -77.7833 104° East 293 337 4,900 53 Level Potomac TRACON
Tue 06:54:05 PM 38.0833 -77.6833 102° East 307 353 5,000 50 Climbing Potomac TRACON
Tue 06:55:05 PM 38.0333 -77.6000 127° Southeast 289 333 5,000  Level Potomac TRACON
Tue 06:56:11 PM 37.9833 -77.5167 127° Southeast 297 342 5,000  Level Potomac TRACON
Tue 06:57:05 PM 37.9333 -77.4333 127° Southeast 303 349 5,000  Level Potomac TRACON
Tue 06:58:05 PM 37.9167 -77.3333 102° East 295 339 5,000  Level Potomac TRACON
Tue 06:59:05 PM 37.9333 -77.2333 78° East 292 336 5,000  Level Potomac TRACON
Tue 07:00:05 PM 37.9500 -77.1333 78° East 290 334 5,000  Level Potomac TRACON
Tue 07:01:05 PM 37.9500 -77.0333 90° East 299 344 5,000  Level Potomac TRACON
Tue 07:01:22 PM 37.9542 -77.0086 78° East 293 337 5,000  Level Washington Center
Tue 07:02:29 PM 37.9658 -76.8983 82° East 291 335 5,000  Level Washington Center
Tue 07:03:30 PM 37.9961 -76.8117 66° East 284 327 5,000  Level Washington Center
Tue 07:04:30 PM 38.0553 -76.7361 45° Northeast 280 322 5,000  Level Washington Center
Tue 07:05:25 PM 38.0994 -76.6656 51° Northeast 282 325 5,000  Level Washington Center
Tue 07:06:25 PM 38.1544 -76.5925 46° Northeast 284 327 5,000  Level Washington Center
Tue 07:07:20 PM 38.2008 -76.5269 48° Northeast 284 327 5,000  Level Washington Center
Tue 07:08:27 PM 38.2578 -76.4483 47° Northeast 284 327 5,000  Level Washington Center
Tue 07:09:27 PM 38.3167 -76.3750 44° Northeast 294 338 5,000  Level Washington Center
Tue 07:10:26 PM 38.3794 -76.3200 34° Northeast 277 319 5,000  Level Washington Center
Tue 07:11:21 PM 38.4381 -76.2650 36° Northeast 280 322 5,000  Level Washington Center
Tue 07:13:39 PM 38.5833 -76.1167 39° Northeast 278 320 5,000 30 Level Potomac TRACON
Tue 07:14:39 PM 38.6500 -76.0667 30° Northeast 280 322 5,100 50 Climbing Potomac TRACON
Tue 07:15:39 PM 38.7167 -76.0000 38° Northeast 280 322 5,100 -13 Level Potomac TRACON
Tue 07:17:00 PM 38.8000 -75.9100 32° Northeast  Level FlightAware Approximate
Tue 07:22:35 PM 39.1667 -75.7000 352° North 264 304 5,000  Level Philadelphia TRACON
Tue 07:23:48 PM 39.2667 -75.6833 North 260 299 5,000  Level Philadelphia TRACON
Tue 07:24:00 PM 39.2575 -75.5102 349° North  Level FlightAware Approximate
Tue 07:24:48 PM 39.3333 -75.6667 11° North 260 299 5,000  Level Philadelphia TRACON
Tue 07:25:00 PM 39.3369 -75.5301 349° North  Level FlightAware Approximate
Tue 07:25:48 PM 39.4000 -75.6500 11° North 261 300 5,000  Level Philadelphia TRACON
Tue 07:26:00 PM 39.4157 -75.5529 352° North  Level FlightAware Approximate
Tue 07:26:54 PM 39.4833 -75.6333 North 264 304 5,000  Level Philadelphia TRACON
Tue 07:27:00 PM 39.4958 -75.5679 352° North  Level FlightAware Approximate
Tue 07:27:48 PM 39.5500 -75.6333 360° North 262 302 5,000  Level Philadelphia TRACON
Tue 07:28:54 PM 39.6333 -75.6167 North 262 302 5,000  Level Philadelphia TRACON
Tue 07:29:42 PM 39.6833 -75.6000 14° North 257 296 5,000  Level Philadelphia TRACON
Tue 07:30:54 PM 39.7667 -75.5833 North 258 297 5,000  Level Philadelphia TRACON
Tue 07:31:48 PM 39.8333 -75.5500 21° North 261 300 5,000  Level Philadelphia TRACON
Tue 07:32:54 PM 39.9000 -75.5333 11° North 261 300 5,000  Level Philadelphia TRACON
Tue 07:33:54 PM 39.9667 -75.4833 30° Northeast 278 320 5,000  Level Philadelphia TRACON
Tue 07:34:54 PM 40.0333 -75.4167 37° Northeast 276 318 5,000  Level Philadelphia TRACON
Tue 07:35:54 PM 40.0833 -75.3333 52° Northeast 279 321 5,000  Level Philadelphia TRACON
Tue 07:36:54 PM 40.1333 -75.2667 46° Northeast 277 319 5,000  Level Philadelphia TRACON
Tue 07:37:42 PM 40.1833 -75.2167 37° Northeast 280 322 5,000 -353 Level Philadelphia TRACON
Tue 07:39:44 PM 40.3000 -75.0833 41° Northeast 277 319 4,000 -330 Descending New York TRACON
Tue 07:40:44 PM 40.3667 -75.0167 37° Northeast 277 319 4,000  Level New York TRACON
Tue 07:41:44 PM 40.4167 -74.9500 45° Northeast 272 313 4,000  Level New York TRACON
Tue 07:42:44 PM 40.4667 -74.8833 45° Northeast 281 323 4,000  Level New York TRACON
Tue 07:43:44 PM 40.5333 -74.8000 44° Northeast 278 320 4,000  Level New York TRACON
Tue 07:44:44 PM 40.5833 -74.7500 37° Northeast 261 300 4,000 50 Level New York TRACON
Tue 07:45:44 PM 40.6333 -74.6833 45° Northeast 250 288 4,100 -300 Climbing New York TRACON
Tue 07:46:44 PM 40.6833 -74.6167 45° Northeast 267 307 3,400 -500 Descending New York TRACON
Tue 07:47:44 PM 40.7333 -74.5500 45° Northeast 268 308 3,100 -150 Descending New York TRACON
Tue 07:48:44 PM 40.7833 -74.4833 45° Northeast 256 295 3,100  Level New York TRACON
Tue 07:49:44 PM 40.8333 -74.4167 45° Northeast 233 268 3,100  Level New York TRACON
Tue 07:50:44 PM 40.8833 -74.3500 45° Northeast 251 289 3,100  Level New York TRACON
Tue 07:51:44 PM 40.9333 -74.2667 52° Northeast 276 318 3,100 -300 Level New York TRACON
Tue 07:52:44 PM 40.9500 -74.1667 78° East 294 338 2,500 -500 Descending New York TRACON
Tue 07:53:44 PM 40.9667 -74.0667 78° East 285 328 2,100 -550 Descending New York TRACON
Tue 07:54:44 PM 40.9167 -74.0167 143° Southeast 214 246 1,400 -700 Descending New York TRACON
Tue 07:55:44 PM 40.8833 -74.0333 201° Southwest 138 159 700 -700 Descending New York TRACON
Tue 07:57:00 PM 40.8500 -74.0500 201° Southwest  Level FlightAware Approximate
Tue 08:04:00 PM 40.8501 -74.0608 201° Southwest  Level Estimated
Tue 08:05:00 PM 40.8501 -74.0608 201° Southwest  Level Estimated

Login

Don't have an account? Register now (free) for customized features, flight alerts, and more!